createdAt,value
2024-04-30T00:00:26.955Z,1003.90
2024-04-30T00:01:26.929Z,1003.92
2024-04-30T00:02:27.018Z,1003.93
2024-04-30T00:03:27.104Z,1003.95
2024-04-30T00:04:27.251Z,1003.95
2024-04-30T00:05:27.257Z,1003.92
2024-04-30T00:06:27.320Z,1003.92
2024-04-30T00:07:27.475Z,1003.91
2024-04-30T00:08:27.464Z,1003.87
2024-04-30T00:09:27.550Z,1003.85
2024-04-30T00:10:27.684Z,1003.83
2024-04-30T00:11:27.735Z,1003.82
2024-04-30T00:12:27.805Z,1003.79
2024-04-30T00:13:27.902Z,1003.80
2024-04-30T00:14:27.952Z,1003.83
2024-04-30T00:15:28.029Z,1003.82
2024-04-30T00:16:28.133Z,1003.86
2024-04-30T00:17:28.218Z,1003.84
2024-04-30T00:18:28.286Z,1003.82
2024-04-30T00:19:28.515Z,1003.86
2024-04-30T00:20:28.503Z,1003.81
2024-04-30T00:21:28.542Z,1003.82
2024-04-30T00:22:28.684Z,1003.81
2024-04-30T00:23:28.714Z,1003.79
2024-04-30T00:24:28.781Z,1003.77
2024-04-30T00:25:28.953Z,1003.77
2024-04-30T00:26:28.968Z,1003.76
2024-04-30T00:27:29.054Z,1003.77
2024-04-30T00:28:29.251Z,1003.76
2024-04-30T00:29:29.208Z,1003.73
2024-04-30T00:30:29.288Z,1003.74
2024-04-30T00:31:29.466Z,1003.76
2024-04-30T00:32:29.548Z,1003.75
2024-04-30T00:33:29.510Z,1003.76
2024-04-30T00:34:29.617Z,1003.77
2024-04-30T00:35:29.694Z,1003.72
2024-04-30T00:36:29.860Z,1003.75
2024-04-30T00:37:29.918Z,1003.73
2024-04-30T00:38:29.909Z,1003.72
2024-04-30T00:39:30.011Z,1003.75
2024-04-30T00:40:30.112Z,1003.78
2024-04-30T00:41:30.212Z,1003.75
2024-04-30T00:42:30.219Z,1003.75
2024-04-30T00:43:30.370Z,1003.76
2024-04-30T00:44:30.338Z,1003.78
2024-04-30T00:45:30.442Z,1003.78
2024-04-30T00:46:30.642Z,1003.80
2024-04-30T00:47:30.662Z,1003.76
2024-04-30T00:48:30.829Z,1003.77
2024-04-30T00:49:30.840Z,1003.77
2024-04-30T00:50:30.824Z,1003.82
2024-04-30T00:51:30.886Z,1003.75
2024-04-30T00:52:31.069Z,1003.77
2024-04-30T00:53:31.046Z,1003.81
2024-04-30T00:54:31.156Z,1003.73
2024-04-30T00:55:31.300Z,1003.77
2024-04-30T00:56:31.310Z,1003.72
2024-04-30T00:57:31.390Z,1003.73
2024-04-30T00:58:31.574Z,1003.73
2024-04-30T00:59:31.571Z,1003.72
2024-04-30T01:00:31.681Z,1003.70
2024-04-30T01:01:31.776Z,1003.71
2024-04-30T01:02:31.837Z,1003.66
2024-04-30T01:03:31.947Z,1003.71
2024-04-30T01:04:32.032Z,1003.69
2024-04-30T01:05:32.069Z,1003.68
2024-04-30T01:06:32.160Z,1003.64
2024-04-30T01:07:32.346Z,1003.67
2024-04-30T01:08:32.326Z,1003.68
2024-04-30T01:09:32.413Z,1003.68
2024-04-30T01:10:32.526Z,1003.64
2024-04-30T01:11:32.653Z,1003.63
2024-04-30T01:12:32.685Z,1003.63
2024-04-30T01:13:32.834Z,1003.63
2024-04-30T01:14:32.861Z,1003.60
2024-04-30T01:15:32.981Z,1003.60
2024-04-30T01:16:33.107Z,1003.62
2024-04-30T01:17:33.158Z,1003.60
2024-04-30T01:18:33.168Z,1003.62
2024-04-30T01:19:33.266Z,1003.67
2024-04-30T01:20:33.296Z,1003.65
2024-04-30T01:21:33.410Z,1003.62
2024-04-30T01:22:33.520Z,1003.62
2024-04-30T01:23:33.547Z,1003.61
2024-04-30T01:24:33.641Z,1003.56
2024-04-30T01:25:33.816Z,1003.54
2024-04-30T01:26:33.832Z,1003.53
2024-04-30T01:27:33.918Z,1003.55
2024-04-30T01:28:34.018Z,1003.59
2024-04-30T01:29:34.051Z,1003.54
2024-04-30T01:30:34.162Z,1003.53
2024-04-30T01:31:34.295Z,1003.55
2024-04-30T01:32:34.399Z,1003.60
2024-04-30T01:33:34.405Z,1003.56
2024-04-30T01:34:34.610Z,1003.59
2024-04-30T01:35:34.564Z,1003.55
2024-04-30T01:36:34.663Z,1003.56
2024-04-30T01:37:34.816Z,1003.56
2024-04-30T01:38:34.826Z,1003.56
2024-04-30T01:39:34.896Z,1003.57
2024-04-30T01:40:35.034Z,1003.57
2024-04-30T01:41:35.038Z,1003.54
2024-04-30T01:42:35.141Z,1003.55
2024-04-30T01:43:35.330Z,1003.54
2024-04-30T01:44:35.307Z,1003.51
2024-04-30T01:45:35.401Z,1003.52
2024-04-30T01:46:35.544Z,1003.51
2024-04-30T01:47:35.602Z,1003.55
2024-04-30T01:48:35.623Z,1003.57
2024-04-30T01:49:35.743Z,1003.58
2024-04-30T01:50:35.795Z,1003.57
2024-04-30T01:51:35.860Z,1003.58
2024-04-30T01:52:35.979Z,1003.58
2024-04-30T01:53:36.009Z,1003.58
2024-04-30T01:54:36.119Z,1003.57
2024-04-30T01:55:36.216Z,1003.57
2024-04-30T01:56:36.259Z,1003.56
2024-04-30T01:57:36.326Z,1003.52
2024-04-30T01:58:36.405Z,1003.52
2024-04-30T01:59:36.512Z,1003.55
2024-04-30T02:00:36.592Z,1003.52
2024-04-30T02:01:36.691Z,1003.54
2024-04-30T02:02:36.745Z,1003.47
2024-04-30T02:03:36.842Z,1003.49
2024-04-30T02:04:42.685Z,1003.50
2024-04-30T02:05:36.999Z,1003.53
2024-04-30T02:06:37.073Z,1003.52
2024-04-30T02:07:37.150Z,1003.50
2024-04-30T02:08:37.207Z,1003.49
2024-04-30T02:09:37.315Z,1003.49
2024-04-30T02:10:37.495Z,1003.47
2024-04-30T02:11:37.469Z,1003.45
2024-04-30T02:12:37.537Z,1003.43
2024-04-30T02:13:37.663Z,1003.43
2024-04-30T02:14:37.694Z,1003.41
2024-04-30T02:15:37.758Z,1003.41
2024-04-30T02:16:37.841Z,1003.38
2024-04-30T02:17:38.065Z,1003.38
2024-04-30T02:18:38.013Z,1003.38
2024-04-30T02:19:38.155Z,1003.35
2024-04-30T02:20:38.174Z,1003.36
2024-04-30T02:21:38.252Z,1003.36
2024-04-30T02:22:38.359Z,1003.35
2024-04-30T02:23:38.373Z,1003.31
2024-04-30T02:24:38.482Z,1003.29
2024-04-30T02:25:38.629Z,1003.29
2024-04-30T02:26:38.648Z,1003.27
2024-04-30T02:27:38.722Z,1003.25
2024-04-30T02:28:38.812Z,1003.25
2024-04-30T02:29:38.874Z,1003.19
2024-04-30T02:30:38.949Z,1003.23
2024-04-30T02:31:39.031Z,1003.19
2024-04-30T02:32:39.195Z,1003.17
2024-04-30T02:33:39.179Z,1003.19
2024-04-30T02:34:39.268Z,1003.13
2024-04-30T02:35:39.306Z,1003.10
2024-04-30T02:36:39.391Z,1003.09
2024-04-30T02:37:39.464Z,1003.04
2024-04-30T02:38:39.518Z,1003.03
2024-04-30T02:39:39.599Z,1003.02
2024-04-30T02:40:39.692Z,1002.99
2024-04-30T02:41:39.721Z,1003.01
2024-04-30T02:42:39.778Z,1002.97
2024-04-30T02:43:39.884Z,1003.02
2024-04-30T02:44:39.927Z,1003.01
2024-04-30T02:45:39.991Z,1003.01
2024-04-30T02:46:40.086Z,1003.00
2024-04-30T02:47:40.208Z,1003.01
2024-04-30T02:48:40.239Z,1003.04
2024-04-30T02:49:40.351Z,1003.05
2024-04-30T02:50:40.401Z,1003.03
2024-04-30T02:51:40.464Z,1003.04
2024-04-30T02:52:40.555Z,1003.01
2024-04-30T02:53:40.601Z,1002.96
2024-04-30T02:54:40.685Z,1002.97
2024-04-30T02:55:40.791Z,1002.96
2024-04-30T02:56:40.847Z,1003.00
2024-04-30T02:57:40.939Z,1002.97
2024-04-30T02:58:41.015Z,1002.97
2024-04-30T02:59:41.130Z,1002.99
2024-04-30T03:00:41.170Z,1003.02
2024-04-30T03:01:41.278Z,1002.96
2024-04-30T03:02:41.317Z,1002.97
2024-04-30T03:03:41.394Z,1002.93
2024-04-30T03:04:41.534Z,1002.92
2024-04-30T03:05:41.531Z,1002.95
2024-04-30T03:06:41.582Z,1002.90
2024-04-30T03:07:41.725Z,1002.98
2024-04-30T03:08:41.758Z,1002.92
2024-04-30T03:09:41.835Z,1002.94
2024-04-30T03:10:41.976Z,1002.94
2024-04-30T03:11:41.990Z,1002.98
2024-04-30T03:12:42.089Z,1002.95
2024-04-30T03:13:42.216Z,1002.93
2024-04-30T03:14:42.213Z,1002.94
2024-04-30T03:15:42.295Z,1002.94
2024-04-30T03:16:42.461Z,1002.96
2024-04-30T03:17:42.549Z,1002.94
2024-04-30T03:18:42.539Z,1002.96
2024-04-30T03:19:42.625Z,1002.96
2024-04-30T03:20:42.690Z,1002.91
2024-04-30T03:21:42.774Z,1002.91
2024-04-30T03:22:42.826Z,1002.89
2024-04-30T03:23:42.918Z,1002.93
2024-04-30T03:24:43.005Z,1002.91
2024-04-30T03:25:43.126Z,1002.90
2024-04-30T03:26:43.153Z,1002.88
2024-04-30T03:27:43.246Z,1002.86
2024-04-30T03:28:43.329Z,1002.89
2024-04-30T03:29:43.399Z,1002.86
2024-04-30T03:30:43.464Z,1002.87
2024-04-30T03:31:43.561Z,1002.90
2024-04-30T03:32:43.772Z,1002.86
2024-04-30T03:33:43.752Z,1002.92
2024-04-30T03:34:43.857Z,1002.94
2024-04-30T03:35:43.883Z,1002.92
2024-04-30T03:36:43.955Z,1002.91
2024-04-30T03:37:44.032Z,1002.88
2024-04-30T03:38:44.126Z,1002.90
2024-04-30T03:39:44.218Z,1002.91
2024-04-30T03:40:44.316Z,1002.92
2024-04-30T03:41:44.375Z,1002.89
2024-04-30T03:42:44.459Z,1002.89
2024-04-30T03:43:44.637Z,1002.87
2024-04-30T03:44:44.635Z,1002.91
2024-04-30T03:45:44.706Z,1002.86
2024-04-30T03:46:44.841Z,1002.85
2024-04-30T03:47:44.934Z,1002.84
2024-04-30T03:48:44.977Z,1002.78
2024-04-30T03:49:45.056Z,1002.79
2024-04-30T03:50:45.112Z,1002.77
2024-04-30T03:51:45.194Z,1002.77
2024-04-30T03:52:45.280Z,1002.76
2024-04-30T03:53:45.353Z,1002.77
2024-04-30T03:54:45.431Z,1002.77
2024-04-30T03:55:45.522Z,1002.78
2024-04-30T03:56:45.604Z,1002.78
2024-04-30T03:57:45.689Z,1002.83
2024-04-30T03:58:45.781Z,1002.79
2024-04-30T03:59:45.837Z,1002.83
2024-04-30T04:00:45.947Z,1002.85
2024-04-30T04:01:46.085Z,1002.79
2024-04-30T04:02:46.113Z,1002.78
2024-04-30T04:03:46.218Z,1002.76
2024-04-30T04:04:46.282Z,1002.78
2024-04-30T04:05:46.317Z,1002.72
2024-04-30T04:06:46.396Z,1002.80
2024-04-30T04:07:46.575Z,1002.78
2024-04-30T04:08:46.548Z,1002.79
2024-04-30T04:09:46.661Z,1002.79
2024-04-30T04:10:46.744Z,1002.75
2024-04-30T04:11:46.867Z,1002.79
2024-04-30T04:12:46.872Z,1002.79
2024-04-30T04:13:46.955Z,1002.74
2024-04-30T04:14:48.493Z,1002.78
2024-04-30T04:15:47.080Z,1002.79
2024-04-30T04:16:47.171Z,1002.78
2024-04-30T04:17:47.272Z,1002.76
2024-04-30T04:18:47.393Z,1002.74
2024-04-30T04:19:47.470Z,1002.73
2024-04-30T04:20:47.483Z,1002.74
2024-04-30T04:21:47.587Z,1002.73
2024-04-30T04:22:47.648Z,1002.75
2024-04-30T04:23:47.718Z,1002.76
2024-04-30T04:24:47.784Z,1002.75
2024-04-30T04:25:47.871Z,1002.71
2024-04-30T04:26:47.913Z,1002.75
2024-04-30T04:27:47.995Z,1002.74
2024-04-30T04:28:48.049Z,1002.79
2024-04-30T04:29:48.136Z,1002.80
2024-04-30T04:30:48.205Z,1002.74
2024-04-30T04:31:48.352Z,1002.79
2024-04-30T04:32:48.454Z,1002.77
2024-04-30T04:33:48.480Z,1002.79
2024-04-30T04:34:48.538Z,1002.77
2024-04-30T04:35:48.627Z,1002.76
2024-04-30T04:36:48.680Z,1002.75
2024-04-30T04:37:48.831Z,1002.74
2024-04-30T04:38:48.849Z,1002.74
2024-04-30T04:39:48.961Z,1002.73
2024-04-30T04:40:49.048Z,1002.67
2024-04-30T04:41:49.188Z,1002.68
2024-04-30T04:42:49.186Z,1002.69
2024-04-30T04:43:49.384Z,1002.68
2024-04-30T04:44:49.359Z,1002.66
2024-04-30T04:45:49.453Z,1002.68
2024-04-30T04:46:49.553Z,1002.63
2024-04-30T04:47:49.620Z,1002.62
2024-04-30T04:48:49.673Z,1002.60
2024-04-30T04:49:49.779Z,1002.62
2024-04-30T04:50:49.852Z,1002.59
2024-04-30T04:51:50.340Z,1002.58
2024-04-30T04:52:50.041Z,1002.60
2024-04-30T04:53:50.100Z,1002.60
2024-04-30T04:54:50.204Z,1002.63
2024-04-30T04:55:50.381Z,1002.55
2024-04-30T04:56:50.372Z,1002.60
2024-04-30T04:57:50.459Z,1002.58
2024-04-30T04:58:50.517Z,1002.63
2024-04-30T04:59:50.618Z,1002.61
2024-04-30T05:00:50.721Z,1002.58
2024-04-30T05:01:50.808Z,1002.59
2024-04-30T05:02:50.893Z,1002.59
2024-04-30T05:03:51.020Z,1002.58
2024-04-30T05:04:51.039Z,1002.57
2024-04-30T05:05:51.082Z,1002.54
2024-04-30T05:06:52.820Z,1002.54
2024-04-30T05:07:51.233Z,1002.52
2024-04-30T05:08:51.312Z,1002.45
2024-04-30T05:09:51.396Z,1002.46
2024-04-30T05:10:51.560Z,1002.42
2024-04-30T05:11:51.557Z,1002.48
2024-04-30T05:12:51.633Z,1002.44
2024-04-30T05:13:51.719Z,1002.47
2024-04-30T05:14:55.297Z,1002.46
2024-04-30T05:15:51.855Z,1002.48
2024-04-30T05:16:52.022Z,1002.50
2024-04-30T05:17:52.089Z,1002.44
2024-04-30T05:18:52.086Z,1002.49
2024-04-30T05:19:52.147Z,1002.50
2024-04-30T05:20:52.234Z,1002.55
2024-04-30T05:21:52.314Z,1002.59
2024-04-30T05:22:52.378Z,1002.58
2024-04-30T05:23:52.445Z,1002.58
2024-04-30T05:24:52.514Z,1002.61
2024-04-30T05:25:52.569Z,1002.59
2024-04-30T05:26:52.680Z,1002.59
2024-04-30T05:27:52.769Z,1002.60
2024-04-30T05:28:52.823Z,1002.61
2024-04-30T05:29:55.506Z,1002.58
2024-04-30T05:30:52.995Z,1002.58
2024-04-30T05:31:53.067Z,1002.55
2024-04-30T05:32:53.269Z,1002.54
2024-04-30T05:33:53.257Z,1002.52
2024-04-30T05:34:53.301Z,1002.50
2024-04-30T05:35:53.361Z,1002.40
2024-04-30T05:36:53.474Z,1002.40
2024-04-30T05:37:53.533Z,1002.43
2024-04-30T05:38:53.598Z,1002.40
2024-04-30T05:39:53.686Z,1002.42
2024-04-30T05:40:53.799Z,1002.39
2024-04-30T05:41:53.856Z,1002.42
2024-04-30T05:42:53.977Z,1002.36
2024-04-30T05:43:54.056Z,1002.38
2024-04-30T05:44:54.121Z,1002.38
2024-04-30T05:45:54.219Z,1002.28
2024-04-30T05:46:54.391Z,1002.33
2024-04-30T05:47:54.393Z,1002.26
2024-04-30T05:48:54.417Z,1002.30
2024-04-30T05:49:54.461Z,1002.32
2024-04-30T05:50:54.553Z,1002.32
2024-04-30T05:51:54.634Z,1002.29
2024-04-30T05:52:54.719Z,1002.29
2024-04-30T05:53:56.452Z,1002.22
2024-04-30T05:54:54.881Z,1002.19
2024-04-30T05:55:54.953Z,1002.13
2024-04-30T05:56:55.044Z,1002.12
2024-04-30T05:57:55.140Z,1002.12
2024-04-30T05:58:55.202Z,1002.11
2024-04-30T05:59:55.371Z,1002.07
2024-04-30T06:00:55.387Z,1002.04
2024-04-30T06:01:55.456Z,1002.05
2024-04-30T06:02:55.514Z,1002.02
2024-04-30T06:03:55.702Z,1002.06
2024-04-30T06:04:55.808Z,1002.03
2024-04-30T06:05:55.758Z,1002.03
2024-04-30T06:06:55.848Z,1001.99
2024-04-30T06:07:55.931Z,1001.96
2024-04-30T06:08:55.984Z,1001.94
2024-04-30T06:09:56.054Z,1001.92
2024-04-30T06:10:56.236Z,1001.90
2024-04-30T06:11:56.197Z,1001.87
2024-04-30T06:12:56.280Z,1001.88
2024-04-30T06:13:56.352Z,1001.82
2024-04-30T06:14:56.442Z,1001.78
2024-04-30T06:15:56.519Z,1001.79
2024-04-30T06:16:56.597Z,1001.75
2024-04-30T06:17:56.698Z,1001.78
2024-04-30T06:18:56.788Z,1001.76
2024-04-30T06:19:56.825Z,1001.84
2024-04-30T06:20:56.903Z,1001.87
2024-04-30T06:21:56.964Z,1001.87
2024-04-30T06:22:57.039Z,1001.83
2024-04-30T06:23:57.112Z,1001.87
2024-04-30T06:24:57.171Z,1001.83
2024-04-30T06:25:57.230Z,1001.91
2024-04-30T06:26:57.317Z,1001.82
2024-04-30T06:27:57.361Z,1001.85
2024-04-30T06:28:57.437Z,1001.87
2024-04-30T06:29:57.514Z,1001.89
2024-04-30T06:30:57.577Z,1001.89
2024-04-30T06:31:57.633Z,1001.89
2024-04-30T06:32:57.775Z,1001.92
2024-04-30T06:33:57.875Z,1001.89
2024-04-30T06:34:57.903Z,1001.91
2024-04-30T06:35:57.941Z,1001.85
2024-04-30T06:36:58.010Z,1001.78
2024-04-30T06:37:58.067Z,1001.68
2024-04-30T06:38:58.150Z,1001.68
2024-04-30T06:39:58.236Z,1001.79
2024-04-30T06:40:58.344Z,1001.75
2024-04-30T06:41:58.434Z,1001.76
2024-04-30T06:42:58.454Z,1001.73
2024-04-30T06:43:58.533Z,1001.79
2024-04-30T06:44:58.587Z,1001.76
2024-04-30T06:45:58.652Z,1001.80
2024-04-30T06:46:58.721Z,1001.76
2024-04-30T06:47:58.911Z,1001.73
2024-04-30T06:48:58.879Z,1001.76
2024-04-30T06:49:59.003Z,1001.77
2024-04-30T06:50:59.080Z,1001.73
2024-04-30T06:51:59.168Z,1001.69
2024-04-30T06:52:59.229Z,1001.70
2024-04-30T06:53:59.302Z,1001.70
2024-04-30T06:54:59.358Z,1001.72
2024-04-30T06:55:59.461Z,1001.69
2024-04-30T06:56:59.535Z,1001.67
2024-04-30T06:57:59.583Z,1001.68
2024-04-30T06:58:59.710Z,1001.68
2024-04-30T06:59:59.772Z,1001.74
2024-04-30T07:00:59.865Z,1001.76
2024-04-30T07:01:59.904Z,1001.76
2024-04-30T07:03:00.085Z,1001.74
2024-04-30T07:04:00.104Z,1001.73
2024-04-30T07:05:00.391Z,1001.83
2024-04-30T07:06:00.237Z,1001.75
2024-04-30T07:07:00.324Z,1001.83
2024-04-30T07:08:00.390Z,1001.83
2024-04-30T07:09:00.448Z,1001.84
2024-04-30T07:10:00.520Z,1001.87
2024-04-30T07:11:02.851Z,1001.83
2024-04-30T07:12:00.677Z,1001.89
2024-04-30T07:13:00.784Z,1001.98
2024-04-30T07:14:00.814Z,1001.84
2024-04-30T07:15:00.912Z,1001.84
2024-04-30T07:16:01.006Z,1001.87
2024-04-30T07:17:07.458Z,1001.85
2024-04-30T07:18:01.179Z,1001.86
2024-04-30T07:19:01.224Z,1001.98
2024-04-30T07:20:01.275Z,1001.85
2024-04-30T07:21:01.372Z,1001.75
2024-04-30T07:22:01.474Z,1001.67
2024-04-30T07:23:01.534Z,1001.71
2024-04-30T07:24:01.611Z,1001.81
2024-04-30T07:25:01.670Z,1001.82
2024-04-30T07:26:01.735Z,1001.75
2024-04-30T07:27:01.841Z,1001.72
2024-04-30T07:28:01.906Z,1001.66
2024-04-30T07:29:01.997Z,1001.78
2024-04-30T07:30:02.165Z,1001.71
2024-04-30T07:31:02.346Z,1001.76
2024-04-30T07:32:02.326Z,1001.71
2024-04-30T07:33:02.461Z,1001.74
2024-04-30T07:34:02.623Z,1001.74
2024-04-30T07:35:02.540Z,1001.71
2024-04-30T07:36:02.541Z,1001.75
2024-04-30T07:37:02.735Z,1001.78
2024-04-30T07:38:02.706Z,1001.73
2024-04-30T07:39:02.773Z,1001.79
2024-04-30T07:40:02.954Z,1001.80
2024-04-30T07:41:02.952Z,1001.82
2024-04-30T07:42:05.854Z,1001.79
2024-04-30T07:43:03.128Z,1001.81
2024-04-30T07:44:03.183Z,1001.94
2024-04-30T07:45:03.267Z,1001.82
2024-04-30T07:46:03.365Z,1001.76
2024-04-30T07:47:03.565Z,1001.81
2024-04-30T07:48:03.726Z,1001.83
2024-04-30T07:49:03.646Z,1001.78
2024-04-30T07:50:03.695Z,1001.73
2024-04-30T07:51:03.786Z,1001.76
2024-04-30T07:52:04.042Z,1001.74
2024-04-30T07:53:03.952Z,1001.77
2024-04-30T07:54:04.013Z,1001.78
2024-04-30T07:55:04.145Z,1001.76
2024-04-30T07:56:04.154Z,1001.76
2024-04-30T07:57:04.252Z,1001.77
2024-04-30T07:58:04.335Z,1001.79
2024-04-30T07:59:04.378Z,1001.77
2024-04-30T08:00:04.473Z,1001.79
2024-04-30T08:01:04.668Z,1001.81
2024-04-30T08:02:04.822Z,1001.79
2024-04-30T08:03:04.803Z,1001.75
2024-04-30T08:04:04.925Z,1001.76
2024-04-30T08:05:04.898Z,1001.73
2024-04-30T08:06:10.852Z,1001.74
2024-04-30T08:07:05.146Z,1001.70
2024-04-30T08:08:05.179Z,1001.73
2024-04-30T08:09:05.239Z,1001.74
2024-04-30T08:10:05.384Z,1001.75
2024-04-30T08:11:05.405Z,1001.70
2024-04-30T08:12:05.480Z,1001.72
2024-04-30T08:13:05.594Z,1001.76
2024-04-30T08:14:05.596Z,1001.89
2024-04-30T08:15:05.703Z,1001.73
2024-04-30T08:16:05.818Z,1001.76
2024-04-30T08:17:05.969Z,1001.71
2024-04-30T08:18:06.094Z,1001.67
2024-04-30T08:19:06.106Z,1001.66
2024-04-30T08:20:06.113Z,1001.84
2024-04-30T08:21:06.219Z,1001.68
2024-04-30T08:22:06.333Z,1001.86
2024-04-30T08:23:06.402Z,1001.69
2024-04-30T08:24:06.474Z,1001.65
2024-04-30T08:25:06.613Z,1001.57
2024-04-30T08:26:06.594Z,1001.66
2024-04-30T08:27:06.700Z,1001.63
2024-04-30T08:28:06.773Z,1001.86
2024-04-30T08:29:06.813Z,1001.57
2024-04-30T08:30:06.901Z,1001.70
2024-04-30T08:31:06.991Z,1001.65
2024-04-30T08:32:07.073Z,1001.84
2024-04-30T08:33:07.205Z,1001.65
2024-04-30T08:34:07.231Z,1001.81
2024-04-30T08:35:07.279Z,1001.82
2024-04-30T08:36:07.349Z,1001.80
2024-04-30T08:37:07.412Z,1001.61
2024-04-30T08:38:07.536Z,1001.61
2024-04-30T08:39:07.566Z,1001.70
2024-04-30T08:40:07.640Z,1001.70
2024-04-30T08:41:07.699Z,1001.60
2024-04-30T08:42:07.776Z,1001.78
2024-04-30T08:43:07.887Z,1001.70
2024-04-30T08:44:07.979Z,1001.55
2024-04-30T08:45:08.039Z,1001.52
2024-04-30T08:46:08.266Z,1001.51
2024-04-30T08:47:08.384Z,1001.56
2024-04-30T08:48:08.274Z,1001.63
2024-04-30T08:49:08.378Z,1001.67
2024-04-30T08:50:15.908Z,1001.67
2024-04-30T08:51:08.596Z,1001.65
2024-04-30T08:52:08.660Z,1001.61
2024-04-30T08:53:08.719Z,1001.59
2024-04-30T08:54:08.751Z,1001.58
2024-04-30T08:55:08.881Z,1001.57
2024-04-30T08:56:11.271Z,1001.48
2024-04-30T08:57:09.011Z,1001.51
2024-04-30T08:58:09.130Z,1001.49
2024-04-30T08:59:09.188Z,1001.45
2024-04-30T09:00:09.255Z,1001.48
2024-04-30T09:01:09.580Z,1001.45
2024-04-30T09:02:09.467Z,1001.49
2024-04-30T09:03:09.539Z,1001.46
2024-04-30T09:04:09.657Z,1001.46
2024-04-30T09:05:09.649Z,1001.49
2024-04-30T09:06:09.709Z,1001.50
2024-04-30T09:07:09.820Z,1001.49
2024-04-30T09:08:09.863Z,1001.45
2024-04-30T09:09:09.948Z,1001.51
2024-04-30T09:10:10.076Z,1001.55
2024-04-30T09:11:10.187Z,1001.53
2024-04-30T09:12:10.342Z,1001.43
2024-04-30T09:13:10.301Z,1001.40
2024-04-30T09:14:10.348Z,1001.41
2024-04-30T09:15:10.422Z,1001.39
2024-04-30T09:16:10.599Z,1001.37
2024-04-30T09:17:10.630Z,1001.41
2024-04-30T09:18:10.754Z,1001.40
2024-04-30T09:19:10.729Z,1001.44
2024-04-30T09:20:10.820Z,1001.44
2024-04-30T09:21:16.958Z,1001.37
2024-04-30T09:22:10.987Z,1001.39
2024-04-30T09:23:11.016Z,1001.37
2024-04-30T09:24:11.132Z,1001.36
2024-04-30T09:25:11.203Z,1001.31
2024-04-30T09:26:11.259Z,1001.35
2024-04-30T09:27:11.320Z,1001.34
2024-04-30T09:28:11.439Z,1001.31
2024-04-30T09:29:11.485Z,1001.35
2024-04-30T09:30:11.556Z,1001.35
2024-04-30T09:31:11.677Z,1001.34
2024-04-30T09:32:11.721Z,1001.36
2024-04-30T09:33:11.964Z,1001.31
2024-04-30T09:34:11.854Z,1001.31
2024-04-30T09:35:11.913Z,1001.32
2024-04-30T09:36:13.595Z,1001.33
2024-04-30T09:37:12.098Z,1001.32
2024-04-30T09:38:12.140Z,1001.29
2024-04-30T09:39:12.247Z,1001.20
2024-04-30T09:40:12.286Z,1001.24
2024-04-30T09:41:12.537Z,1001.21
2024-04-30T09:42:12.452Z,1001.22
2024-04-30T09:43:12.519Z,1001.23
2024-04-30T09:44:12.619Z,1001.30
2024-04-30T09:45:12.677Z,1001.24
2024-04-30T09:46:12.846Z,1001.26
2024-04-30T09:47:12.886Z,1001.23
2024-04-30T09:48:12.931Z,1001.29
2024-04-30T09:49:13.050Z,1001.24
2024-04-30T09:50:13.084Z,1001.20
2024-04-30T09:51:13.170Z,1001.14
2024-04-30T09:52:13.229Z,1001.11
2024-04-30T09:53:13.295Z,1001.07
2024-04-30T09:54:13.354Z,1001.03
2024-04-30T09:55:13.476Z,1001.11
2024-04-30T09:56:13.551Z,1001.07
2024-04-30T09:57:13.674Z,1001.09
2024-04-30T09:58:13.731Z,1001.03
2024-04-30T09:59:13.797Z,1001.07
2024-04-30T10:00:15.218Z,1001.00
2024-04-30T10:01:13.992Z,1001.00
2024-04-30T10:02:14.012Z,1000.96
2024-04-30T10:03:14.216Z,1001.01
2024-04-30T10:04:14.288Z,1000.98
2024-04-30T10:05:14.433Z,1000.87
2024-04-30T10:06:14.301Z,1000.94
2024-04-30T10:07:14.446Z,1000.94
2024-04-30T10:08:14.480Z,1000.88
2024-04-30T10:09:14.542Z,1000.93
2024-04-30T10:10:14.652Z,1000.97
2024-04-30T10:11:14.757Z,1000.88
2024-04-30T10:12:14.799Z,1000.88
2024-04-30T10:13:14.935Z,1000.83
2024-04-30T10:14:14.989Z,1000.85
2024-04-30T10:15:15.084Z,1000.87
2024-04-30T10:16:15.343Z,1000.85
2024-04-30T10:17:15.387Z,1000.89
2024-04-30T10:18:15.355Z,1000.95
2024-04-30T10:19:15.426Z,1000.92
2024-04-30T10:20:15.511Z,1000.88
2024-04-30T10:21:15.542Z,1000.91
2024-04-30T10:22:15.739Z,1000.87
2024-04-30T10:23:15.696Z,1000.83
2024-04-30T10:24:15.761Z,1000.79
2024-04-30T10:25:15.847Z,1000.83
2024-04-30T10:26:16.056Z,1000.82
2024-04-30T10:27:15.967Z,1000.85
2024-04-30T10:28:16.157Z,1000.84
2024-04-30T10:29:16.156Z,1000.84
2024-04-30T10:30:16.227Z,1000.77
2024-04-30T10:31:16.341Z,1000.74
2024-04-30T10:32:16.385Z,1000.74
2024-04-30T10:33:16.601Z,1000.75
2024-04-30T10:34:16.660Z,1000.77
2024-04-30T10:35:16.598Z,1000.75
2024-04-30T10:36:16.715Z,1000.69
2024-04-30T10:37:16.806Z,1000.68
2024-04-30T10:38:16.866Z,1000.60
2024-04-30T10:39:16.987Z,1000.66
2024-04-30T10:40:17.001Z,1000.66
2024-04-30T10:41:17.052Z,1000.62
2024-04-30T10:42:17.115Z,1000.61
2024-04-30T10:43:17.219Z,1000.59
2024-04-30T10:44:17.271Z,1000.55
2024-04-30T10:45:17.358Z,1000.53
2024-04-30T10:46:17.535Z,1000.48
2024-04-30T10:47:17.662Z,1000.45
2024-04-30T10:48:17.693Z,1000.49
2024-04-30T10:49:17.739Z,1000.42
2024-04-30T10:50:19.789Z,1000.41
2024-04-30T10:51:17.861Z,1000.36
2024-04-30T10:52:17.926Z,1000.41
2024-04-30T10:53:18.031Z,1000.43
2024-04-30T10:54:18.150Z,1000.35
2024-04-30T10:55:18.196Z,1000.41
2024-04-30T10:56:18.275Z,1000.39
2024-04-30T10:57:18.396Z,1000.35
2024-04-30T10:58:18.525Z,1000.37
2024-04-30T10:59:18.541Z,1000.37
2024-04-30T11:00:18.607Z,1000.36
2024-04-30T11:01:18.703Z,1000.33
2024-04-30T11:02:18.755Z,1000.27
2024-04-30T11:03:18.912Z,1000.30
2024-04-30T11:04:19.015Z,1000.29
2024-04-30T11:05:19.068Z,1000.27
2024-04-30T11:06:19.120Z,1000.31
2024-04-30T11:07:19.265Z,1000.25
2024-04-30T11:08:19.235Z,1000.28
2024-04-30T11:09:19.315Z,1000.26
2024-04-30T11:10:19.425Z,1000.22
2024-04-30T11:11:19.509Z,1000.19
2024-04-30T11:12:19.563Z,1000.16
2024-04-30T11:13:19.636Z,1000.11
2024-04-30T11:14:19.709Z,1000.05
2024-04-30T11:15:19.782Z,1000.12
2024-04-30T11:16:19.876Z,1000.13
2024-04-30T11:17:20.043Z,1000.15
2024-04-30T11:18:20.128Z,1000.12
2024-04-30T11:19:20.118Z,1000.10
2024-04-30T11:20:20.200Z,1000.09
2024-04-30T11:21:20.285Z,1000.06
2024-04-30T11:22:20.383Z,1000.02
2024-04-30T11:23:20.397Z,1000.01
2024-04-30T11:24:20.518Z,1000.03
2024-04-30T11:25:20.659Z,999.94
2024-04-30T11:26:20.644Z,999.93
2024-04-30T11:27:20.726Z,999.91
2024-04-30T11:28:20.851Z,999.88
2024-04-30T11:30:20.940Z,999.86
2024-04-30T11:31:21.048Z,999.86
2024-04-30T11:32:21.202Z,999.84
2024-04-30T11:33:21.253Z,999.83
2024-04-30T11:34:21.331Z,999.82
2024-04-30T11:35:21.352Z,999.78
2024-04-30T11:36:21.407Z,999.77
2024-04-30T11:37:21.592Z,999.75
2024-04-30T11:38:21.576Z,999.75
2024-04-30T11:39:21.644Z,999.75
2024-04-30T11:40:21.767Z,999.70
2024-04-30T11:41:21.786Z,999.70
2024-04-30T11:42:27.419Z,999.71
2024-04-30T11:43:21.994Z,999.65
2024-04-30T11:44:22.050Z,999.69
2024-04-30T11:45:22.158Z,999.64
2024-04-30T11:46:22.259Z,999.60
2024-04-30T11:47:22.395Z,999.61
2024-04-30T11:48:23.503Z,999.61
2024-04-30T11:49:22.489Z,999.57
2024-04-30T11:50:22.554Z,999.58
2024-04-30T11:51:22.630Z,999.56
2024-04-30T11:52:22.745Z,999.55
2024-04-30T11:53:22.956Z,999.50
2024-04-30T11:54:22.919Z,999.50
2024-04-30T11:55:23.006Z,999.47
2024-04-30T11:56:23.073Z,999.47
2024-04-30T11:57:23.231Z,999.48
2024-04-30T11:58:23.243Z,999.52
2024-04-30T11:59:23.295Z,999.48
2024-04-30T12:00:23.389Z,999.49
2024-04-30T12:01:23.503Z,999.45
2024-04-30T12:02:23.548Z,999.50
2024-04-30T12:03:23.895Z,999.48
2024-04-30T12:04:23.724Z,999.47
2024-04-30T12:05:23.773Z,999.44
2024-04-30T12:06:23.836Z,999.42
2024-04-30T12:07:23.942Z,999.38
2024-04-30T12:08:24.038Z,999.36
2024-04-30T12:09:24.129Z,999.35